Aérodrome :
LOGIN :

S'inscrire | Disclaimer

   EN    FR    IT 

 










Légende :    VFR   VFR Marginal   IFR   IFR Intensif   IFR Très Intensif
Visi : 
Plafond : 
>= 8 km
>= 3000ft
5 à 8 km
1000 à 3000 ft
1500m à 5 km
500 à 1000 ft
800 à 1500m
200 à 500 ft
< 800m
< 200 ft
Symboles :   Orages  Brouillard  Fortes neiges  Fortes précipitations  Vent > 20 kt
SIGMETs :   Divers  Orages  Givrage  Turbulence  Onde Orograph.  Cendres Volcan.






- Altitude de l'aérodrome : 510 ft


LJCE - Cerklje

DERNIER METAR :
  • 031730Z 11005KT CAVOK 12/M02 Q1014 RMK BLU

METARs EXPIRÉS :
  • 031700Z 11004KT CAVOK 14/M02 Q1013 RMK BLU
  • 031630Z 11004KT CAVOK 15/M02 Q1013 RMK BLU
  • 031600Z 10004KT 080V140 CAVOK 15/M02 Q1013 RMK BLU
  • 031530Z 10005KT 040V140 CAVOK 16/M04 Q1013 RMK BLU
  • 031500Z 11005KT 040V150 CAVOK 17/M03 Q1012 RMK BLU

TAF TAF LJCE
Valide du 03 à 18h jusqu'au 04 à 03h UTC


031700Z 0318/0403 VRB02KT CAVOK



MET'MAP, la Météo Aéronautique d'un coup d'oeil ! - Copyright ORBIFLY Décembre 2007 - Disclaimer

ORBIFLY MET'MAP TEAM :

Programmation & Développement : Alexandra Zaïnal
Sur une idée originale de : Baudouin d'Aumeries
Assistance à la programmation : Marc-Olivier Méhu
Soutien technique & logistique : Manuel Goepfert

Contact : metmap@orbifly.com




SOURCES & CREDITS :

   NOAA